sensor_id;sensor_type;location;lat;lon;timestamp;P1;durP1;ratioP1;P2;durP2;ratioP2
36789;SDS011;22740;52.182;8.780;2023-05-16T00:04:00;14.07;;;8.05;;
36789;SDS011;22740;52.182;8.780;2023-05-16T00:16:08;7.63;;;5.40;;
36789;SDS011;22740;52.182;8.780;2023-05-16T00:22:16;6.30;;;5.18;;
36789;SDS011;22740;52.182;8.780;2023-05-16T00:28:20;6.60;;;4.63;;
36789;SDS011;22740;52.182;8.780;2023-05-16T00:34:22;5.60;;;4.53;;
36789;SDS011;22740;52.182;8.780;2023-05-16T00:40:26;9.13;;;4.63;;
36789;SDS011;22740;52.182;8.780;2023-05-16T00:46:30;5.43;;;4.57;;
36789;SDS011;22740;52.182;8.780;2023-05-16T00:52:35;8.93;;;4.40;;
36789;SDS011;22740;52.182;8.780;2023-05-16T00:58:39;6.22;;;4.22;;
36789;SDS011;22740;52.182;8.780;2023-05-16T01:04:43;6.65;;;4.88;;
36789;SDS011;22740;52.182;8.780;2023-05-16T01:23:55;6.53;;;4.30;;
36789;SDS011;22740;52.182;8.780;2023-05-16T01:30:23;5.93;;;4.00;;
36789;SDS011;22740;52.182;8.780;2023-05-16T01:36:42;6.30;;;3.97;;
36789;SDS011;22740;52.182;8.780;2023-05-16T01:43:13;5.55;;;3.85;;
36789;SDS011;22740;52.182;8.780;2023-05-16T01:49:24;5.75;;;3.60;;
36789;SDS011;22740;52.182;8.780;2023-05-16T01:55:50;5.90;;;3.15;;
36789;SDS011;22740;52.182;8.780;2023-05-16T02:01:58;6.22;;;2.30;;
36789;SDS011;22740;52.182;8.780;2023-05-16T02:08:00;6.30;;;2.05;;
36789;SDS011;22740;52.182;8.780;2023-05-16T02:14:04;3.72;;;1.58;;
36789;SDS011;22740;52.182;8.780;2023-05-16T02:20:08;6.65;;;1.90;;
36789;SDS011;22740;52.182;8.780;2023-05-16T02:26:15;7.47;;;2.13;;
36789;SDS011;22740;52.182;8.780;2023-05-16T02:32:19;5.97;;;2.10;;
36789;SDS011;22740;52.182;8.780;2023-05-16T02:38:24;3.63;;;1.80;;
36789;SDS011;22740;52.182;8.780;2023-05-16T02:44:27;12.77;;;2.28;;
36789;SDS011;22740;52.182;8.780;2023-05-16T02:50:30;9.23;;;1.80;;
36789;SDS011;22740;52.182;8.780;2023-05-16T02:56:34;6.20;;;1.83;;
36789;SDS011;22740;52.182;8.780;2023-05-16T03:02:38;10.10;;;1.83;;
36789;SDS011;22740;52.182;8.780;2023-05-16T03:08:42;5.53;;;2.30;;
36789;SDS011;22740;52.182;8.780;2023-05-16T03:14:46;12.45;;;2.17;;
36789;SDS011;22740;52.182;8.780;2023-05-16T03:20:55;7.60;;;1.90;;
36789;SDS011;22740;52.182;8.780;2023-05-16T03:27:04;11.40;;;2.30;;
36789;SDS011;22740;52.182;8.780;2023-05-16T03:33:14;10.05;;;1.98;;
36789;SDS011;22740;52.182;8.780;2023-05-16T03:39:24;12.77;;;2.10;;
36789;SDS011;22740;52.182;8.780;2023-05-16T03:45:33;16.67;;;2.38;;
36789;SDS011;22740;52.182;8.780;2023-05-16T03:51:43;11.02;;;2.03;;
36789;SDS011;22740;52.182;8.780;2023-05-16T03:57:53;15.68;;;2.60;;
36789;SDS011;22740;52.182;8.780;2023-05-16T04:04:02;11.73;;;2.95;;
36789;SDS011;22740;52.182;8.780;2023-05-16T04:10:11;10.38;;;1.65;;
36789;SDS011;22740;52.182;8.780;2023-05-16T04:16:19;9.80;;;2.13;;
36789;SDS011;22740;52.182;8.780;2023-05-16T04:22:25;9.63;;;2.33;;
36789;SDS011;22740;52.182;8.780;2023-05-16T04:28:29;8.05;;;1.80;;
36789;SDS011;22740;52.182;8.780;2023-05-16T04:34:33;12.35;;;2.28;;
36789;SDS011;22740;52.182;8.780;2023-05-16T04:40:42;12.52;;;2.03;;
36789;SDS011;22740;52.182;8.780;2023-05-16T04:46:51;9.77;;;1.63;;
36789;SDS011;22740;52.182;8.780;2023-05-16T04:53:00;17.35;;;2.10;;
36789;SDS011;22740;52.182;8.780;2023-05-16T04:59:09;14.00;;;1.90;;
36789;SDS011;22740;52.182;8.780;2023-05-16T05:05:16;13.85;;;1.70;;
36789;SDS011;22740;52.182;8.780;2023-05-16T05:11:21;16.63;;;2.65;;
36789;SDS011;22740;52.182;8.780;2023-05-16T05:17:24;7.63;;;1.60;;
36789;SDS011;22740;52.182;8.780;2023-05-16T05:23:28;15.60;;;1.75;;
36789;SDS011;22740;52.182;8.780;2023-05-16T05:29:32;9.68;;;1.98;;
36789;SDS011;22740;52.182;8.780;2023-05-16T05:35:36;12.95;;;1.80;;
36789;SDS011;22740;52.182;8.780;2023-05-16T05:41:39;12.93;;;1.85;;
36789;SDS011;22740;52.182;8.780;2023-05-16T05:47:44;14.95;;;2.42;;
36789;SDS011;22740;52.182;8.780;2023-05-16T05:53:47;9.77;;;1.52;;
36789;SDS011;22740;52.182;8.780;2023-05-16T05:59:51;12.55;;;2.20;;
36789;SDS011;22740;52.182;8.780;2023-05-16T06:05:54;12.07;;;2.10;;
36789;SDS011;22740;52.182;8.780;2023-05-16T06:11:58;16.20;;;1.73;;
36789;SDS011;22740;52.182;8.780;2023-05-16T06:18:02;10.17;;;2.10;;
36789;SDS011;22740;52.182;8.780;2023-05-16T06:24:06;10.53;;;1.70;;
36789;SDS011;22740;52.182;8.780;2023-05-16T06:30:09;14.63;;;2.45;;
36789;SDS011;22740;52.182;8.780;2023-05-16T06:36:12;12.57;;;2.20;;
36789;SDS011;22740;52.182;8.780;2023-05-16T06:42:16;11.93;;;1.80;;
36789;SDS011;22740;52.182;8.780;2023-05-16T06:48:18;8.88;;;1.65;;
36789;SDS011;22740;52.182;8.780;2023-05-16T06:54:22;11.20;;;1.70;;
36789;SDS011;22740;52.182;8.780;2023-05-16T07:00:26;13.47;;;2.20;;
36789;SDS011;22740;52.182;8.780;2023-05-16T07:06:28;13.50;;;1.60;;
36789;SDS011;22740;52.182;8.780;2023-05-16T07:12:32;7.77;;;1.70;;
36789;SDS011;22740;52.182;8.780;2023-05-16T07:18:37;10.77;;;1.55;;
36789;SDS011;22740;52.182;8.780;2023-05-16T07:24:40;11.95;;;1.55;;
36789;SDS011;22740;52.182;8.780;2023-05-16T07:30:44;10.60;;;1.40;;
36789;SDS011;22740;52.182;8.780;2023-05-16T07:36:48;8.00;;;1.25;;
36789;SDS011;22740;52.182;8.780;2023-05-16T07:42:52;7.82;;;1.30;;
36789;SDS011;22740;52.182;8.780;2023-05-16T07:48:54;5.53;;;1.20;;
36789;SDS011;22740;52.182;8.780;2023-05-16T07:54:58;7.43;;;1.40;;
36789;SDS011;22740;52.182;8.780;2023-05-16T08:01:00;8.65;;;1.48;;
36789;SDS011;22740;52.182;8.780;2023-05-16T08:07:04;8.50;;;1.60;;
36789;SDS011;22740;52.182;8.780;2023-05-16T08:13:07;8.43;;;1.40;;
36789;SDS011;22740;52.182;8.780;2023-05-16T08:19:11;9.77;;;2.33;;
36789;SDS011;22740;52.182;8.780;2023-05-16T08:25:14;8.20;;;1.40;;
36789;SDS011;22740;52.182;8.780;2023-05-16T08:31:19;7.85;;;1.42;;
36789;SDS011;22740;52.182;8.780;2023-05-16T08:37:26;5.65;;;0.90;;
36789;SDS011;22740;52.182;8.780;2023-05-16T08:49:42;9.15;;;1.30;;
36789;SDS011;22740;52.182;8.780;2023-05-16T08:55:48;8.45;;;1.13;;
36789;SDS011;22740;52.182;8.780;2023-05-16T09:01:56;5.57;;;0.93;;
36789;SDS011;22740;52.182;8.780;2023-05-16T09:07:59;7.90;;;1.08;;
36789;SDS011;22740;52.182;8.780;2023-05-16T09:14:03;8.85;;;1.50;;
36789;SDS011;22740;52.182;8.780;2023-05-16T09:20:08;10.00;;;1.20;;
36789;SDS011;22740;52.182;8.780;2023-05-16T09:26:16;5.45;;;1.30;;
36789;SDS011;22740;52.182;8.780;2023-05-16T09:32:20;7.60;;;0.95;;
36789;SDS011;22740;52.182;8.780;2023-05-16T09:38:23;9.15;;;1.23;;
36789;SDS011;22740;52.182;8.780;2023-05-16T09:44:30;7.82;;;1.25;;
36789;SDS011;22740;52.182;8.780;2023-05-16T09:50:33;6.00;;;1.25;;
36789;SDS011;22740;52.182;8.780;2023-05-16T09:56:49;5.10;;;0.80;;
36789;SDS011;22740;52.182;8.780;2023-05-16T10:02:56;5.72;;;0.93;;
36789;SDS011;22740;52.182;8.780;2023-05-16T10:09:04;4.20;;;0.80;;
36789;SDS011;22740;52.182;8.780;2023-05-16T10:21:13;3.88;;;0.80;;
36789;SDS011;22740;52.182;8.780;2023-05-16T10:27:19;6.47;;;0.98;;
36789;SDS011;22740;52.182;8.780;2023-05-16T10:33:28;7.60;;;1.05;;
36789;SDS011;22740;52.182;8.780;2023-05-16T10:39:37;6.50;;;0.90;;
36789;SDS011;22740;52.182;8.780;2023-05-16T10:45:45;5.78;;;1.10;;
36789;SDS011;22740;52.182;8.780;2023-05-16T10:58:22;11.05;;;1.25;;
36789;SDS011;22740;52.182;8.780;2023-05-16T11:04:51;6.75;;;1.40;;
36789;SDS011;22740;52.182;8.780;2023-05-16T11:17:50;6.03;;;0.95;;
36789;SDS011;22740;52.182;8.780;2023-05-16T11:24:27;3.90;;;0.80;;
36789;SDS011;22740;52.182;8.780;2023-05-16T11:30:36;2.63;;;0.70;;
36789;SDS011;22740;52.182;8.780;2023-05-16T11:36:53;3.30;;;0.80;;
36789;SDS011;22740;52.182;8.780;2023-05-16T11:42:59;4.07;;;0.97;;
36789;SDS011;22740;52.182;8.780;2023-05-16T11:49:10;4.63;;;1.13;;
36789;SDS011;22740;52.182;8.780;2023-05-16T11:55:15;3.97;;;1.02;;
36789;SDS011;22740;52.182;8.780;2023-05-16T12:01:41;5.68;;;0.90;;
36789;SDS011;22740;52.182;8.780;2023-05-16T12:07:44;4.55;;;1.60;;
36789;SDS011;22740;52.182;8.780;2023-05-16T12:20:03;5.50;;;0.90;;
36789;SDS011;22740;52.182;8.780;2023-05-16T12:26:07;2.28;;;0.75;;
36789;SDS011;22740;52.182;8.780;2023-05-16T12:32:12;5.27;;;0.93;;
36789;SDS011;22740;52.182;8.780;2023-05-16T12:38:19;3.80;;;0.70;;
36789;SDS011;22740;52.182;8.780;2023-05-16T12:44:23;8.80;;;2.05;;
36789;SDS011;22740;52.182;8.780;2023-05-16T12:50:39;2.42;;;0.68;;
36789;SDS011;22740;52.182;8.780;2023-05-16T12:56:42;3.55;;;0.95;;
36789;SDS011;22740;52.182;8.780;2023-05-16T13:02:50;4.65;;;0.82;;
36789;SDS011;22740;52.182;8.780;2023-05-16T13:08:54;6.68;;;1.10;;
36789;SDS011;22740;52.182;8.780;2023-05-16T13:14:59;4.57;;;0.98;;
36789;SDS011;22740;52.182;8.780;2023-05-16T13:21:04;8.57;;;1.10;;
36789;SDS011;22740;52.182;8.780;2023-05-16T13:27:07;4.93;;;1.00;;
36789;SDS011;22740;52.182;8.780;2023-05-16T13:33:11;3.15;;;0.65;;
36789;SDS011;22740;52.182;8.780;2023-05-16T13:39:14;1.67;;;0.55;;
36789;SDS011;22740;52.182;8.780;2023-05-16T13:57:25;2.38;;;0.60;;
36789;SDS011;22740;52.182;8.780;2023-05-16T14:03:29;3.40;;;0.80;;
36789;SDS011;22740;52.182;8.780;2023-05-16T14:09:34;3.60;;;0.90;;
36789;SDS011;22740;52.182;8.780;2023-05-16T14:15:40;6.18;;;0.77;;
36789;SDS011;22740;52.182;8.780;2023-05-16T14:21:43;3.58;;;0.90;;
36789;SDS011;22740;52.182;8.780;2023-05-16T14:27:46;7.07;;;0.83;;
36789;SDS011;22740;52.182;8.780;2023-05-16T14:33:52;3.40;;;0.80;;
36789;SDS011;22740;52.182;8.780;2023-05-16T14:40:00;5.38;;;0.88;;
36789;SDS011;22740;52.182;8.780;2023-05-16T14:46:04;3.60;;;0.60;;
36789;SDS011;22740;52.182;8.780;2023-05-16T14:52:09;7.07;;;1.00;;
36789;SDS011;22740;52.182;8.780;2023-05-16T14:58:14;4.60;;;0.90;;
36789;SDS011;22740;52.182;8.780;2023-05-16T15:04:21;6.22;;;0.70;;
36789;SDS011;22740;52.182;8.780;2023-05-16T15:10:28;4.55;;;0.68;;
36789;SDS011;22740;52.182;8.780;2023-05-16T15:16:35;7.57;;;1.05;;
36789;SDS011;22740;52.182;8.780;2023-05-16T15:22:40;4.10;;;1.00;;
36789;SDS011;22740;52.182;8.780;2023-05-16T15:28:44;5.68;;;0.88;;
36789;SDS011;22740;52.182;8.780;2023-05-16T15:34:53;5.80;;;0.90;;
36789;SDS011;22740;52.182;8.780;2023-05-16T15:40:59;4.55;;;0.85;;
36789;SDS011;22740;52.182;8.780;2023-05-16T15:47:29;5.05;;;1.10;;
36789;SDS011;22740;52.182;8.780;2023-05-16T15:53:40;3.65;;;1.10;;
36789;SDS011;22740;52.182;8.780;2023-05-16T15:59:51;4.43;;;0.88;;
36789;SDS011;22740;52.182;8.780;2023-05-16T16:06:02;4.45;;;1.00;;
36789;SDS011;22740;52.182;8.780;2023-05-16T16:12:09;6.18;;;0.90;;
36789;SDS011;22740;52.182;8.780;2023-05-16T16:18:16;7.82;;;1.52;;
36789;SDS011;22740;52.182;8.780;2023-05-16T16:24:20;5.30;;;1.00;;
36789;SDS011;22740;52.182;8.780;2023-05-16T16:30:23;5.75;;;1.00;;
36789;SDS011;22740;52.182;8.780;2023-05-16T16:36:28;7.65;;;1.30;;
36789;SDS011;22740;52.182;8.780;2023-05-16T16:42:32;4.53;;;0.90;;
36789;SDS011;22740;52.182;8.780;2023-05-16T16:48:36;5.43;;;1.10;;
36789;SDS011;22740;52.182;8.780;2023-05-16T16:54:40;7.25;;;1.17;;
36789;SDS011;22740;52.182;8.780;2023-05-16T17:00:44;7.50;;;1.60;;
36789;SDS011;22740;52.182;8.780;2023-05-16T17:06:48;4.63;;;1.98;;
36789;SDS011;22740;52.182;8.780;2023-05-16T17:12:51;5.73;;;1.80;;
36789;SDS011;22740;52.182;8.780;2023-05-16T17:18:56;5.05;;;1.63;;
36789;SDS011;22740;52.182;8.780;2023-05-16T17:25:00;9.10;;;2.05;;
36789;SDS011;22740;52.182;8.780;2023-05-16T17:31:04;9.23;;;2.63;;
36789;SDS011;22740;52.182;8.780;2023-05-16T17:37:06;9.70;;;2.22;;
36789;SDS011;22740;52.182;8.780;2023-05-16T17:43:12;6.15;;;2.08;;
36789;SDS011;22740;52.182;8.780;2023-05-16T17:49:16;9.10;;;2.33;;
36789;SDS011;22740;52.182;8.780;2023-05-16T17:55:20;8.00;;;2.83;;
36789;SDS011;22740;52.182;8.780;2023-05-16T18:01:24;6.05;;;2.33;;
36789;SDS011;22740;52.182;8.780;2023-05-16T18:07:30;8.13;;;2.38;;
36789;SDS011;22740;52.182;8.780;2023-05-16T18:13:50;9.57;;;2.33;;
36789;SDS011;22740;52.182;8.780;2023-05-16T18:19:57;6.45;;;2.40;;
36789;SDS011;22740;52.182;8.780;2023-05-16T18:26:00;6.03;;;2.13;;
36789;SDS011;22740;52.182;8.780;2023-05-16T18:32:05;7.32;;;2.53;;
36789;SDS011;22740;52.182;8.780;2023-05-16T18:38:08;5.50;;;2.45;;
36789;SDS011;22740;52.182;8.780;2023-05-16T18:44:29;4.43;;;2.10;;
36789;SDS011;22740;52.182;8.780;2023-05-16T18:50:32;7.22;;;2.75;;
36789;SDS011;22740;52.182;8.780;2023-05-16T18:56:35;9.00;;;2.38;;
36789;SDS011;22740;52.182;8.780;2023-05-16T19:02:39;7.30;;;2.47;;
36789;SDS011;22740;52.182;8.780;2023-05-16T19:14:48;6.20;;;2.53;;
36789;SDS011;22740;52.182;8.780;2023-05-16T19:20:52;7.03;;;2.33;;
36789;SDS011;22740;52.182;8.780;2023-05-16T19:26:55;5.70;;;2.10;;
36789;SDS011;22740;52.182;8.780;2023-05-16T19:32:58;4.67;;;2.10;;
36789;SDS011;22740;52.182;8.780;2023-05-16T19:39:01;7.38;;;2.20;;
36789;SDS011;22740;52.182;8.780;2023-05-16T19:45:03;6.78;;;2.30;;
36789;SDS011;22740;52.182;8.780;2023-05-16T19:51:07;4.65;;;2.42;;
36789;SDS011;22740;52.182;8.780;2023-05-16T19:57:11;5.47;;;2.33;;
36789;SDS011;22740;52.182;8.780;2023-05-16T20:03:13;4.72;;;2.10;;
36789;SDS011;22740;52.182;8.780;2023-05-16T20:09:16;5.47;;;2.05;;
36789;SDS011;22740;52.182;8.780;2023-05-16T20:15:19;7.28;;;2.13;;
36789;SDS011;22740;52.182;8.780;2023-05-16T20:21:21;4.32;;;1.88;;
36789;SDS011;22740;52.182;8.780;2023-05-16T20:27:26;7.72;;;2.03;;
36789;SDS011;22740;52.182;8.780;2023-05-16T20:33:33;7.53;;;1.77;;
36789;SDS011;22740;52.182;8.780;2023-05-16T20:39:37;6.55;;;1.92;;
36789;SDS011;22740;52.182;8.780;2023-05-16T20:45:40;8.17;;;1.80;;
36789;SDS011;22740;52.182;8.780;2023-05-16T20:51:43;6.40;;;1.50;;
36789;SDS011;22740;52.182;8.780;2023-05-16T20:57:45;6.90;;;1.52;;
36789;SDS011;22740;52.182;8.780;2023-05-16T21:03:50;5.57;;;1.47;;
36789;SDS011;22740;52.182;8.780;2023-05-16T21:09:53;2.88;;;1.02;;
36789;SDS011;22740;52.182;8.780;2023-05-16T21:15:56;7.25;;;1.30;;
36789;SDS011;22740;52.182;8.780;2023-05-16T21:21:58;7.07;;;1.65;;
36789;SDS011;22740;52.182;8.780;2023-05-16T21:28:04;4.00;;;1.15;;
36789;SDS011;22740;52.182;8.780;2023-05-16T21:34:07;8.07;;;1.90;;
36789;SDS011;22740;52.182;8.780;2023-05-16T21:40:11;5.50;;;1.30;;
36789;SDS011;22740;52.182;8.780;2023-05-16T21:46:20;9.50;;;1.75;;
36789;SDS011;22740;52.182;8.780;2023-05-16T21:52:23;6.85;;;1.70;;
36789;SDS011;22740;52.182;8.780;2023-05-16T21:58:26;6.33;;;1.77;;
36789;SDS011;22740;52.182;8.780;2023-05-16T22:04:29;5.55;;;2.17;;
36789;SDS011;22740;52.182;8.780;2023-05-16T22:10:32;8.40;;;1.80;;
36789;SDS011;22740;52.182;8.780;2023-05-16T22:16:35;6.32;;;1.58;;
36789;SDS011;22740;52.182;8.780;2023-05-16T22:22:38;7.77;;;2.00;;
36789;SDS011;22740;52.182;8.780;2023-05-16T22:28:42;7.07;;;1.70;;
36789;SDS011;22740;52.182;8.780;2023-05-16T22:34:45;4.72;;;1.63;;
36789;SDS011;22740;52.182;8.780;2023-05-16T22:40:48;9.60;;;2.07;;
36789;SDS011;22740;52.182;8.780;2023-05-16T22:46:51;8.02;;;1.83;;
36789;SDS011;22740;52.182;8.780;2023-05-16T22:52:54;7.37;;;1.77;;
36789;SDS011;22740;52.182;8.780;2023-05-16T22:58:57;5.75;;;1.40;;
36789;SDS011;22740;52.182;8.780;2023-05-16T23:05:00;5.05;;;1.70;;
36789;SDS011;22740;52.182;8.780;2023-05-16T23:11:03;4.47;;;1.50;;
36789;SDS011;22740;52.182;8.780;2023-05-16T23:17:06;5.30;;;1.90;;
36789;SDS011;22740;52.182;8.780;2023-05-16T23:23:09;5.70;;;1.80;;
36789;SDS011;22740;52.182;8.780;2023-05-16T23:29:12;6.30;;;1.90;;
36789;SDS011;22740;52.182;8.780;2023-05-16T23:35:15;6.75;;;1.88;;
36789;SDS011;22740;52.182;8.780;2023-05-16T23:41:18;4.70;;;2.07;;
36789;SDS011;22740;52.182;8.780;2023-05-16T23:47:21;8.55;;;2.33;;
36789;SDS011;22740;52.182;8.780;2023-05-16T23:53:26;7.18;;;2.17;;
36789;SDS011;22740;52.182;8.780;2023-05-16T23:59:32;8.82;;;2.97;;
